Time;durP1;ratioP1;P1;durP2;ratioP2;P2;SDS_P1;SDS_P2;PMS_P1;PMS_P2;Temp;Humidity;BMP_temperature;BMP_pressure;BME280_temperature;BME280_humidity;BME280_pressure;Samples;Min_cycle;Max_cycle;Signal;HPM_P1;HPM_P2
2022/06/21 08:13:57;;;;;;;5.25;3.17;;;17.40;99.90;;;;;;5070658;28;20608;-66
2022/06/21 08:16:31;;;;;;;2.65;2.42;;;16.60;99.90;;;;;;5070644;28;20181;-66
2022/06/21 08:19:24;;;;;;;3.80;2.42;;;16.70;99.90;;;;;;5070731;28;20177;-66
2022/06/21 08:22:01;;;;;;;3.67;2.63;;;16.80;99.90;;;;;;5070197;28;20214;-66
2022/06/21 08:24:52;;;;;;;3.03;2.42;;;17.00;99.90;;;;;;5070521;28;20645;-74
2022/06/21 08:27:34;;;;;;;3.40;2.63;;;17.10;99.90;;;;;;5070370;28;20783;-74
2022/06/21 08:30:20;;;;;;;2.17;2.08;;;17.20;99.90;;;;;;5070712;28;20535;-75
2022/06/21 08:32:54;;;;;;;8.60;2.35;;;17.20;99.90;;;;;;5070259;28;20199;-72
2022/06/21 08:35:42;;;;;;;3.25;2.65;;;17.20;99.90;;;;;;5068943;28;20176;-72
2022/06/21 08:38:31;;;;;;;3.53;2.47;;;17.20;99.90;;;;;;5070289;28;20169;-74
2022/06/21 08:41:06;;;;;;;9.10;3.95;;;17.30;99.90;;;;;;5070099;28;20509;-74
2022/06/21 08:43:59;;;;;;;2.30;2.10;;;17.30;99.90;;;;;;5070194;28;20205;-74
2022/06/21 08:47:05;;;;;;;4.43;2.40;;;17.40;99.90;;;;;;5068820;28;20176;-74
2022/06/21 08:49:45;;;;;;;8.05;3.60;;;17.50;99.90;;;;;;5069781;28;20625;-74
2022/06/21 08:52:48;;;;;;;2.25;2.15;;;17.70;99.90;;;;;;5069883;28;20757;-74
2022/06/21 08:55:35;;;;;;;2.47;2.38;;;17.80;99.90;;;;;;5069836;28;20164;-74
2022/06/21 08:58:04;;;;;;;5.43;2.80;;;17.80;99.90;;;;;;5069837;28;20176;-74
2022/06/21 09:00:33;;;;;;;2.85;2.40;;;18.00;99.90;;;;;;5069741;28;20164;-74
2022/06/21 09:03:17;;;;;;;3.70;3.38;;;18.10;99.90;;;;;;5069695;28;20192;-74
2022/06/21 09:06:06;;;;;;;6.40;2.75;;;18.20;99.90;;;;;;5069703;28;20174;-75
2022/06/21 09:08:41;;;;;;;2.90;2.75;;;18.30;99.90;;;;;;5068380;28;20646;-75
2022/06/21 09:11:25;;;;;;;2.20;2.10;;;18.30;99.90;;;;;;5069583;28;20189;-75
2022/06/21 09:14:00;;;;;;;6.07;2.63;;;18.30;99.90;;;;;;5069255;28;20310;-75
2022/06/21 09:16:42;;;;;;;4.05;2.53;;;18.30;99.90;;;;;;5069390;28;20249;-75
2022/06/21 09:22:51;;;;;;;2.70;2.50;;;18.60;99.90;;;;;;5067991;28;20225;-73
2022/06/21 09:25:42;;;;;;;3.75;3.45;;;18.80;99.90;;;;;;5056442;28;20558;-73
2022/06/21 09:28:23;;;;;;;2.10;2.00;;;18.90;99.90;;;;;;5055960;28;20703;-73
2022/06/21 09:31:10;;;;;;;3.58;2.10;;;19.00;99.90;;;;;;5055951;28;20255;-73
2022/06/21 09:33:55;;;;;;;2.13;2.00;;;19.10;99.90;;;;;;5055936;28;20205;-73
2022/06/21 09:36:58;;;;;;;2.78;2.10;;;19.20;99.90;;;;;;5055917;28;20172;-74
2022/06/21 09:39:45;;;;;;;4.70;2.10;;;19.30;99.90;;;;;;5055751;28;20168;-72
2022/06/21 09:42:32;;;;;;;2.40;2.25;;;19.40;99.90;;;;;;5055754;28;20172;-74
2022/06/21 09:45:13;;;;;;;3.00;2.38;;;19.40;99.90;;;;;;5055678;28;20214;-73
2022/06/21 09:48:23;;;;;;;2.10;1.95;;;19.50;99.90;;;;;;5055649;28;20172;-73
2022/06/21 09:50:58;;;;;;;2.60;2.45;;;19.60;99.90;;;;;;5055514;28;20178;-73
2022/06/21 09:53:50;;;;;;;5.18;2.65;;;19.70;99.90;;;;;;5055434;28;20649;-72
2022/06/21 09:56:37;;;;;;;5.38;2.15;;;19.80;99.90;;;;;;5055540;28;20169;-73
2022/06/21 09:59:05;;;;;;;2.22;2.08;;;20.00;99.90;;;;;;5055541;28;20165;-73
2022/06/21 10:02:20;;;;;;;3.05;2.85;;;20.20;99.90;;;;;;5055411;28;20172;-71
2022/06/21 10:05:20;;;;;;;3.97;2.85;;;20.30;99.90;;;;;;5055392;28;20164;-71
2022/06/21 10:07:54;;;;;;;5.05;2.78;;;20.40;99.90;;;;;;5055328;28;20161;-71
2022/06/21 10:10:34;;;;;;;6.78;4.25;;;20.50;99.90;;;;;;5055234;28;20167;-71
2022/06/21 10:13:28;;;;;;;3.33;2.45;;;20.30;99.90;;;;;;5054966;28;20314;-71
2022/06/21 10:16:20;;;;;;;3.22;1.98;;;20.40;99.90;;;;;;5055160;28;20161;-71
2022/06/21 10:19:16;;;;;;;3.35;2.38;;;20.40;99.90;;;;;;5055050;28;20622;-71
2022/06/21 10:21:58;;;;;;;3.00;1.80;;;20.50;99.90;;;;;;5053782;28;20629;-71
2022/06/21 10:25:01;;;;;;;4.43;2.00;;;20.70;99.90;;;;;;5055059;28;20160;-72
2022/06/21 10:27:30;;;;;;;3.35;1.67;;;20.90;99.90;;;;;;5053545;28;20672;-67
2022/06/21 10:30:35;;;;;;;2.22;2.03;;;21.00;99.90;;;;;;5054912;28;20165;-68
2022/06/21 10:33:28;;;;;;;2.70;2.30;;;21.10;99.90;;;;;;5046653;28;20204;-68
2022/06/21 10:36:18;;;;;;;1.70;1.60;;;21.20;99.90;;;;;;5052463;28;20514;-68
2022/06/21 10:39:24;;;;;;;2.17;1.90;;;21.30;99.90;;;;;;5054685;28;20638;-68
2022/06/21 10:45:22;;;;;;;7.78;2.10;;;21.30;99.90;;;;;;5054617;28;20180;-67
2022/06/21 10:48:09;;;;;;;2.92;2.63;;;21.40;99.90;;;;;;5053817;28;20671;-73
2022/06/21 10:50:40;;;;;;;4.10;2.58;;;21.60;99.90;;;;;;5054089;28;20168;-73
2022/06/21 10:53:15;;;;;;;4.82;2.00;;;21.70;99.90;;;;;;5053983;28;20284;-73
2022/06/21 10:55:48;;;;;;;2.60;2.40;;;22.00;99.90;;;;;;5053758;28;20168;-73
2022/06/21 10:58:47;;;;;;;7.13;3.35;;;22.10;99.90;;;;;;5053350;28;20168;-74
2022/06/21 11:01:23;;;;;;;4.07;2.17;;;22.20;99.90;;;;;;5053947;28;20172;-74
2022/06/21 11:04:14;;;;;;;2.35;2.15;;;22.20;99.90;;;;;;5054199;28;20226;-74
2022/06/21 11:07:12;;;;;;;1.75;1.65;;;22.40;99.90;;;;;;5054029;28;20247;-74
2022/06/21 11:09:40;;;;;;;2.00;1.90;;;22.60;99.90;;;;;;5052892;28;20181;-74
2022/06/21 11:13:03;;;;;;;3.05;2.25;;;22.80;99.90;;;;;;5053761;28;20629;-74
2022/06/21 11:15:58;;;;;;;9.40;4.18;;;22.80;99.90;;;;;;5052729;28;20192;-73
2022/06/21 11:18:47;;;;;;;4.50;2.70;;;23.00;99.90;;;;;;5053988;28;20168;-73
2022/06/21 11:21:26;;;;;;;3.65;1.75;;;22.90;99.90;;;;;;5053918;28;20164;-73
2022/06/21 11:24:41;;;;;;;5.32;1.85;;;22.90;99.90;;;;;;5053769;28;20169;-74
2022/06/21 11:27:18;;;;;;;5.22;1.90;;;22.90;99.90;;;;;;5053785;28;20275;-74
2022/06/21 11:30:03;;;;;;;3.88;2.13;;;22.80;99.90;;;;;;5053732;28;20174;-74
2022/06/21 11:32:38;;;;;;;4.90;2.25;;;22.70;99.90;;;;;;5053646;28;20226;-74
2022/06/21 11:35:35;;;;;;;3.30;1.80;;;22.70;99.90;;;;;;5053659;28;20175;-76
2022/06/21 11:38:20;;;;;;;3.83;1.75;;;22.60;99.90;;;;;;5053611;28;20247;-76
2022/06/21 11:42:03;;;;;;;9.18;1.90;;;22.50;99.90;;;;;;5053606;28;20167;-76
2022/06/21 11:44:12;;;;;;;2.00;1.85;;;22.40;99.90;;;;;;5053464;28;20172;-75
2022/06/21 11:46:46;;;;;;;2.55;1.90;;;22.40;99.90;;;;;;5053246;28;20164;-75
2022/06/21 11:49:36;;;;;;;1.90;1.80;;;22.30;99.90;;;;;;5053494;28;20168;-75
2022/06/21 11:52:13;;;;;;;4.30;1.90;;;22.20;99.90;;;;;;5053410;28;20192;-75
2022/06/21 11:55:23;;;;;;;2.33;1.67;;;22.20;99.90;;;;;;5053319;28;20555;-75
2022/06/21 11:58:15;;;;;;;1.80;1.70;;;22.20;99.90;;;;;;5053393;28;20164;-75
2022/06/21 12:00:52;;;;;;;2.40;2.20;;;22.50;99.90;;;;;;5053281;28;20243;-76
2022/06/21 12:03:46;;;;;;;1.80;1.50;;;22.80;99.90;;;;;;5053302;28;20176;-76
2022/06/21 12:06:34;;;;;;;1.92;1.70;;;23.30;99.90;;;;;;5053272;28;20164;-76
2022/06/21 12:09:15;;;;;;;4.13;1.73;;;23.70;99.90;;;;;;5053307;28;20240;-75
2022/06/21 12:12:05;;;;;;;2.58;2.33;;;23.80;99.90;;;;;;5052933;28;20172;-75
2022/06/21 12:14:47;;;;;;;2.38;2.03;;;23.90;99.90;;;;;;5053181;28;20247;-76
2022/06/21 12:17:21;;;;;;;1.90;1.80;;;24.00;99.90;;;;;;5053218;28;20165;-76
2022/06/21 12:19:52;;;;;;;3.60;2.00;;;24.10;99.90;;;;;;5053078;28;20250;-75
2022/06/21 12:22:37;;;;;;;2.60;2.03;;;24.10;99.90;;;;;;5053237;28;20259;-79
2022/06/21 12:25:03;;;;;;;7.72;1.90;;;23.80;99.90;;;;;;5051921;28;20202;-85
2022/06/21 12:27:29;;;;;;;8.30;6.38;;;23.90;99.90;;;;;;5053090;28;20649;-80
2022/06/21 12:30:00;;;;;;;5.63;4.53;;;24.10;99.90;;;;;;5051804;28;20188;-77
2022/06/21 12:32:27;;;;;;;6.20;3.05;;;24.20;99.90;;;;;;5053113;28;20680;-86
2022/06/21 12:35:07;;;;;;;16.33;9.00;;;24.30;99.90;;;;;;5053049;28;20161;-85
2022/06/21 12:37:44;;;;;;;3.22;2.63;;;24.60;99.90;;;;;;5051864;28;20172;-78
2022/06/21 12:40:31;;;;;;;9.38;2.20;;;24.70;99.90;;;;;;5052993;28;20654;-73
2022/06/21 12:43:26;;;;;;;3.28;1.83;;;24.80;99.90;;;;;;5052966;28;20168;-78
2022/06/21 12:46:16;;;;;;;1.92;1.83;;;24.70;99.90;;;;;;5051670;28;20645;-82
2022/06/21 12:48:47;;;;;;;4.13;2.00;;;24.60;99.90;;;;;;5052737;28;20169;-80
2022/06/21 12:51:53;;;;;;;1.92;1.75;;;24.70;99.90;;;;;;5052879;28;20173;-72
2022/06/21 12:54:28;;;;;;;6.18;2.60;;;24.90;99.90;;;;;;5052795;28;20634;-73
2022/06/21 12:57:12;;;;;;;2.63;1.90;;;25.20;99.90;;;;;;5051338;28;20562;-74
2022/06/21 12:59:55;;;;;;;2.22;2.00;;;25.40;99.90;;;;;;5053935;28;20169;-73
2022/06/21 13:03:08;;;;;;;2.08;1.90;;;25.50;99.90;;;;;;5056566;28;20169;-73
2022/06/21 13:05:58;;;;;;;3.38;1.73;;;25.60;99.90;;;;;;5056480;28;20203;-73
2022/06/21 13:08:35;;;;;;;4.72;1.73;;;25.50;99.90;;;;;;5056625;28;20196;-73
2022/06/21 13:11:26;;;;;;;2.15;1.70;;;25.60;99.90;;;;;;5056440;28;20179;-73
2022/06/21 13:14:06;;;;;;;5.28;1.98;;;25.90;99.90;;;;;;5056075;28;20299;-73
2022/06/21 13:16:47;;;;;;;3.30;2.05;;;26.10;99.90;;;;;;5056271;28;20172;-74
2022/06/21 13:19:23;;;;;;;2.15;1.90;;;26.20;99.90;;;;;;5055896;28;20247;-73
2022/06/21 13:22:02;;;;;;;2.65;2.00;;;26.30;99.90;;;;;;5055577;28;20586;-74
2022/06/21 13:24:33;;;;;;;2.60;1.88;;;26.10;99.90;;;;;;5056068;28;20172;-72
2022/06/21 13:27:24;;;;;;;1.70;1.60;;;25.80;99.90;;;;;;5056050;28;20164;-72
2022/06/21 13:30:25;;;;;;;5.95;2.15;;;25.60;99.90;;;;;;5055001;28;20195;-74
2022/06/21 13:33:03;;;;;;;1.98;1.80;;;25.40;99.90;;;;;;5052873;28;20277;-74
2022/06/21 13:36:06;;;;;;;4.45;1.83;;;25.30;99.90;;;;;;5054692;28;20172;-74
2022/06/21 13:38:44;;;;;;;2.25;1.70;;;25.20;99.90;;;;;;5055879;28;20660;-74
2022/06/21 13:44:31;;;;;;;2.17;1.40;;;25.00;99.90;;;;;;5056073;28;20534;-73
2022/06/21 13:47:11;;;;;;;3.35;1.70;;;25.40;99.90;;;;;;5056195;28;20164;-72
2022/06/21 13:49:47;;;;;;;2.20;2.10;;;25.60;99.90;;;;;;5055970;28;20190;-72
2022/06/21 13:52:24;;;;;;;2.10;2.00;;;25.50;99.90;;;;;;5054452;28;20286;-70
2022/06/21 13:55:06;;;;;;;2.25;2.15;;;25.20;99.90;;;;;;5055825;28;20520;-71
2022/06/21 13:58:03;;;;;;;4.05;2.20;;;24.80;99.90;;;;;;5055782;28;20657;-71
2022/06/21 14:00:52;;;;;;;2.20;1.63;;;24.60;99.90;;;;;;5055746;28;20165;-71
2022/06/21 14:03:30;;;;;;;2.08;1.98;;;24.30;99.90;;;;;;5055776;28;20660;-71
2022/06/21 14:06:13;;;;;;;2.63;1.70;;;24.10;99.90;;;;;;5055630;28;20196;-70
2022/06/21 14:08:46;;;;;;;2.25;1.90;;;24.10;99.90;;;;;;5055528;28;20172;-71
2022/06/21 14:11:34;;;;;;;2.25;1.77;;;24.20;99.90;;;;;;5055586;28;20239;-70
2022/06/21 14:14:06;;;;;;;5.20;2.00;;;24.30;99.90;;;;;;5055547;28;20587;-70
2022/06/21 14:16:36;;;;;;;2.85;2.28;;;24.10;99.90;;;;;;5055388;28;20169;-71
2022/06/21 14:19:12;;;;;;;3.30;2.20;;;24.00;99.90;;;;;;5055577;28;20156;-71
2022/06/21 14:22:07;;;;;;;3.25;2.28;;;23.80;99.90;;;;;;5055347;28;20179;-71
2022/06/21 14:24:49;;;;;;;7.00;2.53;;;23.80;99.90;;;;;;5055253;28;20168;-71
2022/06/21 14:27:36;;;;;;;2.65;2.30;;;23.80;99.90;;;;;;5054181;28;20184;-71
2022/06/21 14:30:18;;;;;;;5.13;2.40;;;23.80;99.90;;;;;;5055306;28;20177;-71
2022/06/21 14:32:51;;;;;;;4.75;2.45;;;23.70;99.90;;;;;;5055090;28;20653;-71
2022/06/21 14:35:36;;;;;;;8.90;2.50;;;23.60;99.90;;;;;;5055490;28;20173;-71
2022/06/21 14:38:16;;;;;;;4.32;2.10;;;23.80;99.90;;;;;;5055004;28;20165;-72
2022/06/21 14:40:59;;;;;;;5.53;2.55;;;23.80;99.90;;;;;;5055061;28;20164;-71
2022/06/21 14:43:32;;;;;;;5.13;1.90;;;23.80;99.90;;;;;;5053750;28;20179;-69
2022/06/21 14:46:11;;;;;;;3.25;2.33;;;23.70;99.90;;;;;;5055024;28;20610;-70
2022/06/21 14:48:55;;;;;;;4.75;2.22;;;24.20;99.90;;;;;;5054890;28;20196;-74
2022/06/21 14:52:08;;;;;;;5.75;2.38;;;24.50;99.90;;;;;;5054790;28;20168;-75
2022/06/21 14:54:54;;;;;;;5.72;2.92;;;25.00;99.90;;;;;;5049902;28;20540;-75
2022/06/21 14:57:34;;;;;;;2.53;2.05;;;25.20;99.90;;;;;;5054772;28;20168;-76
2022/06/21 15:00:20;;;;;;;11.15;2.05;;;25.10;99.90;;;;;;5054707;28;20172;-73
2022/06/21 15:03:20;;;;;;;2.63;2.20;;;25.40;99.90;;;;;;5054580;28;20161;-73
2022/06/21 15:05:55;;;;;;;2.42;2.20;;;25.60;99.90;;;;;;5054196;28;20525;-73
2022/06/21 15:08:39;;;;;;;3.75;2.67;;;25.90;99.90;;;;;;5054380;28;20168;-72
2022/06/21 15:11:18;;;;;;;2.05;1.95;;;26.20;99.90;;;;;;5054328;28;20526;-73
2022/06/21 15:13:58;;;;;;;4.68;2.03;;;26.20;99.90;;;;;;5054048;28;20216;-75
2022/06/21 15:16:28;;;;;;;2.13;1.90;;;26.40;99.90;;;;;;5054437;28;20164;-75
2022/06/21 15:19:02;;;;;;;6.20;2.17;;;26.00;99.90;;;;;;5054310;28;20220;-75
2022/06/21 15:21:38;;;;;;;6.47;2.53;;;25.60;99.90;;;;;;5052571;28;20169;-75
2022/06/21 15:24:12;;;;;;;3.22;2.42;;;25.20;99.90;;;;;;5053128;28;20210;-74
2022/06/21 15:26:59;;;;;;;2.53;2.33;;;24.60;99.90;;;;;;5054158;28;20168;-74
2022/06/21 15:29:34;;;;;;;2.85;2.13;;;24.40;99.90;;;;;;5054185;28;20176;-73
2022/06/21 15:32:15;;;;;;;3.35;2.10;;;24.20;99.90;;;;;;5054067;28;20637;-73
2022/06/21 15:34:47;;;;;;;2.40;2.20;;;24.20;99.90;;;;;;5054125;28;20169;-73
2022/06/21 15:37:41;;;;;;;3.58;2.05;;;24.30;99.90;;;;;;5053716;28;20263;-73
2022/06/21 15:40:15;;;;;;;3.03;2.17;;;24.60;99.90;;;;;;5053749;28;20215;-74
2022/06/21 15:43:02;;;;;;;9.18;1.83;;;24.90;99.90;;;;;;5053685;28;20178;-72
2022/06/21 15:45:36;;;;;;;6.75;2.35;;;25.40;99.90;;;;;;5053833;28;20321;-72
2022/06/21 15:51:14;;;;;;;5.20;1.77;;;26.30;99.90;;;;;;5053903;28;20190;-72
2022/06/21 15:54:14;;;;;;;10.48;2.47;;;27.20;99.90;;;;;;5053789;28;20192;-72
2022/06/21 15:56:53;;;;;;;5.28;2.22;;;27.80;99.90;;;;;;5049659;28;20237;-72
2022/06/21 15:59:47;;;;;;;2.80;2.13;;;27.80;99.90;;;;;;5053901;28;20543;-72
2022/06/21 16:02:37;;;;;;;2.50;2.30;;;27.60;99.90;;;;;;5052517;28;20168;-72
2022/06/21 16:05:18;;;;;;;5.68;2.15;;;27.50;99.90;;;;;;5052453;28;20512;-72
2022/06/21 16:08:14;;;;;;;4.97;2.15;;;27.50;99.90;;;;;;5053566;28;20637;-72
2022/06/21 16:10:43;;;;;;;6.40;2.35;;;27.50;99.90;;;;;;5052547;28;20610;-72
2022/06/21 16:13:26;;;;;;;1.80;1.70;;;27.70;99.90;;;;;;5053473;28;20242;-72
2022/06/21 16:16:02;;;;;;;6.30;2.08;;;27.90;99.90;;;;;;5053546;28;20179;-72
2022/06/21 16:18:50;;;;;;;1.88;1.77;;;28.20;99.90;;;;;;5053470;28;20505;-72
2022/06/21 16:21:38;;;;;;;2.33;2.13;;;28.50;99.90;;;;;;5053499;28;20575;-72
2022/06/21 16:24:29;;;;;;;2.03;1.80;;;28.30;99.90;;;;;;5053488;28;20518;-72
2022/06/21 16:27:03;;;;;;;2.63;1.90;;;28.50;99.90;;;;;;5053354;28;20222;-73
2022/06/21 16:29:50;;;;;;;2.45;2.10;;;28.30;99.90;;;;;;5053402;28;20164;-73
2022/06/21 16:35:59;;;;;;;2.42;2.22;;;28.50;99.90;;;;;;5056416;28;20252;-73
2022/06/21 16:38:30;;;;;;;3.22;2.08;;;27.40;99.90;;;;;;5035228;28;20175;-73
2022/06/21 16:44:00;;;;;;;4.03;2.45;;;26.50;99.90;;;;;;5057453;28;20219;-73
2022/06/21 16:46:37;;;;;;;2.15;1.95;;;26.40;99.90;;;;;;5055895;28;20254;-73
2022/06/21 16:49:33;;;;;;;5.53;1.80;;;26.90;99.90;;;;;;5057134;28;20164;-72
2022/06/21 16:52:00;;;;;;;2.42;1.65;;;27.80;99.90;;;;;;5056997;28;20167;-73
2022/06/21 16:54:30;;;;;;;2.88;2.05;;;28.30;99.90;;;;;;5056939;28;20653;-72
2022/06/21 16:56:56;;;;;;;2.25;2.05;;;28.40;99.90;;;;;;5055551;28;20204;-72
2022/06/21 16:59:25;;;;;;;5.03;2.20;;;28.70;99.90;;;;;;5056822;28;20258;-72
2022/06/21 17:01:58;;;;;;;1.90;1.60;;;28.50;99.90;;;;;;5056520;28;20214;-73
2022/06/21 17:04:34;;;;;;;5.35;2.28;;;28.10;99.90;;;;;;5056669;28;20172;-73
2022/06/21 17:07:11;;;;;;;7.85;2.10;;;27.30;99.90;;;;;;5056709;28;20235;-73
2022/06/21 17:09:53;;;;;;;3.63;2.28;;;26.80;99.90;;;;;;5057010;28;20199;-73
2022/06/21 17:12:20;;;;;;;2.28;1.90;;;26.80;99.90;;;;;;5056691;28;20220;-73
2022/06/21 17:14:56;;;;;;;4.00;1.80;;;27.30;99.90;;;;;;5056867;28;20172;-73
2022/06/21 17:17:53;;;;;;;1.85;1.75;;;27.60;99.90;;;;;;5056602;28;20164;-73
2022/06/21 17:20:37;;;;;;;2.90;1.60;;;27.80;99.90;;;;;;5056553;28;20537;-73
2022/06/21 17:23:32;;;;;;;1.75;1.63;;;28.50;99.90;;;;;;5056335;28;20595;-73
2022/06/21 17:26:20;;;;;;;2.42;1.75;;;28.40;99.90;;;;;;5056430;28;20175;-73
2022/06/21 17:28:57;;;;;;;4.47;1.85;;;27.60;99.90;;;;;;5056474;28;20188;-73
2022/06/21 17:31:41;;;;;;;3.72;1.65;;;26.60;99.90;;;;;;5056307;28;20206;-73
2022/06/21 17:34:18;;;;;;;4.07;1.90;;;26.50;99.90;;;;;;5056461;28;20192;-71
2022/06/21 17:37:09;;;;;;;2.63;1.80;;;26.80;99.90;;;;;;5055121;28;20198;-72
2022/06/21 17:39:44;;;;;;;1.63;1.45;;;27.10;99.90;;;;;;5056480;28;20259;-71
2022/06/21 17:42:15;;;;;;;1.63;1.52;;;27.20;99.90;;;;;;5056107;28;20229;-73
2022/06/21 17:44:48;;;;;;;6.13;1.52;;;27.30;99.90;;;;;;5055646;28;20184;-73
2022/06/21 17:47:35;;;;;;;1.90;1.70;;;26.60;99.90;;;;;;5056103;28;20160;-73
2022/06/21 17:50:29;;;;;;;2.75;1.80;;;26.10;99.90;;;;;;5055875;28;20641;-73
2022/06/21 17:53:01;;;;;;;2.00;1.50;;;25.70;99.90;;;;;;5053754;28;20188;-74
2022/06/21 17:55:36;;;;;;;2.50;1.70;;;25.40;99.90;;;;;;5056048;28;20622;-73
2022/06/21 17:58:15;;;;;;;2.60;1.60;;;24.70;99.90;;;;;;5055950;28;20175;-73
2022/06/21 18:00:46;;;;;;;1.88;1.75;;;24.10;99.90;;;;;;5055922;28;20169;-73
2022/06/21 18:03:38;;;;;;;2.78;1.60;;;23.70;99.90;;;;;;5055780;28;20697;-73
2022/06/21 18:06:11;;;;;;;4.88;1.90;;;23.30;99.90;;;;;;5036101;28;20172;-73
2022/06/21 18:08:49;;;;;;;4.38;2.28;;;23.00;99.90;;;;;;5055688;28;20160;-73
2022/06/21 18:11:21;;;;;;;4.10;1.92;;;22.70;99.90;;;;;;5055883;28;20213;-73
2022/06/21 18:13:52;;;;;;;1.85;1.75;;;22.50;99.90;;;;;;5055289;28;20757;-72
2022/06/21 18:16:33;;;;;;;2.08;1.98;;;22.40;99.90;;;;;;5055577;28;20168;-73
2022/06/21 18:19:29;;;;;;;3.30;2.17;;;22.20;99.90;;;;;;5055384;28;20173;-73
2022/06/21 18:22:00;;;;;;;3.55;1.80;;;22.00;99.90;;;;;;5055093;28;20177;-73
2022/06/21 18:25:03;;;;;;;3.40;1.70;;;21.90;99.90;;;;;;5055381;28;20172;-72
